Portada
METAR-TAF:

METAR-TAF

Aeropuertos :

Trollhättan-Vänersborg, Suecia

latitud: 58-19N, longitud: 012-21E, altitud: 41 m

Observación

El informe se hizo hace 29 minutos, a las 15:20 UTC
Viento 10 kt del sur
Temperatura 6°C
Humedad 87%
Presión 1010 hPa
Visibilidad 10 km o más
Nubes dispersas a una altura de 1500 ft

METAR: ESGT 171520Z 17010KT 9999 SCT015 06/04 Q1010

Hora: 16:49 (15:49 UTC)

Pronóstico

El informe se hizo hace 1 hora y 19 minutos, a las 14:30 UTC
Pronóstico válido del 17 a las 15 UTC al 17 a las 18 UTC
Viento 8 kt del sur
Visibilidad 10 km o más
Cielo nuboso a una altura de 1300 ft
Probabilidad 40%
del 17 a las 15 UTC al 17 a las 18 UTC
Nubes dispersas a una altura de 1500 ft

TAF: ESGT 171430Z 1715/1718 18008KT 9999 BKN013 PROB40 1715/1718 SCT015

Observaciones y pronósticos meteorológicos de más de 4000 aeropuertos (mensajes METAR y TAF).

Los puntos amarillos y rojos representan las estaciones disponibles.

Ponga el ratón en el punto deseado para ver el nombre de la estación.

Haga clic para ver las observaciones y los pronósticos meteorológicos.

Para cambiar el mapa : haga clic en los botones verdes con una cruz de color negro para hacer un zoom, en el botón verde con un guión para alejar o en las flechas verdes para mapas adyacentes.


METAR-TAF: